Aviation Digital Data Service (ADDS)

Output produced by METARs form (2227 UTC 21 May 2022)
found at http://www.aviationweather.gov/metar/data/
 
KEWR 212151Z 24011KT 10SM FEW065 FEW250 35/18 A2998 RMK AO2 SLP150 T03500178
KEWR 212004Z 2120/2224 23011G17KT P6SM FEW250 
     FM212300 23009KT P6SM FEW050 
     FM220200 22006KT P6SM FEW050 
     FM220900 23004KT P6SM FEW050 
     FM221500 22009KT P6SM FEW050 FEW150 
     FM221800 22014G19KT P6SM SCT050 SCT150
       
KABE 212151Z 21014KT 10SM CLR 31/19 A3000 RMK AO2 SLP156 T03110194
KABE 211720Z 2118/2218 23009KT P6SM SCT250 
     FM220000 20006KT P6SM FEW250 
     FM220300 VRB03KT P6SM SCT150 
     FM220600 VRB03KT 5SM BR SCT200 
     FM221200 23005KT P6SM SCT200
       
KTTN 212153Z 20008KT 10SM SCT065 32/21 A2999 RMK AO2 SLP147 T03170211
KTTN 211720Z 2118/2218 26009KT P6SM SCT250 
     FM220000 20005KT P6SM FEW250 
     FM220300 VRB03KT P6SM FEW250 
     FM220600 VRB03KT 5SM BR SCT250 
     FM221200 23005KT P6SM SCT200
       
KMPO 212153Z AUTO 20010KT 10SM SCT050 28/18 A3008 RMK AO2 SLP172 T02830178
KAVP 212154Z 24011G19KT 10SM CLR 32/17 A3001 RMK AO2 SLP153 T03170172
KAVP 211740Z 2118/2218 23010KT P6SM FEW250 
     FM220000 14005KT P6SM FEW250 
     FM221400 23009KT P6SM FEW250